createdAt,value
2023-05-07T00:02:04.956Z,13.90
2023-05-07T00:04:53.664Z,13.80
2023-05-07T00:07:42.491Z,13.80
2023-05-07T00:10:31.236Z,13.70
2023-05-07T00:13:19.992Z,13.70
2023-05-07T00:16:10.157Z,13.70
2023-05-07T00:18:58.746Z,13.70
2023-05-07T00:21:47.524Z,13.60
2023-05-07T00:24:36.101Z,13.60
2023-05-07T00:27:24.693Z,13.60
2023-05-07T00:30:14.227Z,13.60
2023-05-07T00:33:04.266Z,13.60
2023-05-07T00:35:52.894Z,13.60
2023-05-07T00:38:41.676Z,13.60
2023-05-07T00:41:31.662Z,13.60
2023-05-07T00:44:20.227Z,13.60
2023-05-07T00:47:09.275Z,13.60
2023-05-07T00:49:59.837Z,13.50
2023-05-07T00:52:48.721Z,13.50
2023-05-07T00:55:38.570Z,13.50
2023-05-07T00:58:27.250Z,13.50
2023-05-07T01:01:17.113Z,13.50
2023-05-07T01:04:05.805Z,13.40
2023-05-07T01:06:58.072Z,13.40
2023-05-07T01:09:47.095Z,13.40
2023-05-07T01:12:36.610Z,13.40
2023-05-07T01:15:25.412Z,13.40
2023-05-07T01:18:14.119Z,13.40
2023-05-07T01:21:06.264Z,13.40
2023-05-07T01:23:57.039Z,13.40
2023-05-07T01:26:46.324Z,13.40
2023-05-07T01:29:35.044Z,13.40
2023-05-07T01:32:29.868Z,13.30
2023-05-07T01:35:23.407Z,13.30
2023-05-07T01:38:12.198Z,13.20
2023-05-07T01:41:02.325Z,13.30
2023-05-07T01:43:54.481Z,13.20
2023-05-07T01:46:43.082Z,13.20
2023-05-07T01:49:31.993Z,13.20
2023-05-07T01:52:20.625Z,13.20
2023-05-07T01:55:09.841Z,13.20
2023-05-07T01:57:59.785Z,13.20
2023-05-07T02:00:48.319Z,13.30
2023-05-07T02:03:37.239Z,13.30
2023-05-07T02:06:25.862Z,13.20
2023-05-07T02:09:16.204Z,13.20
2023-05-07T02:12:07.506Z,13.30
2023-05-07T02:14:57.470Z,13.20
2023-05-07T02:18:02.226Z,13.20
2023-05-07T02:20:50.921Z,13.20
2023-05-07T02:23:39.478Z,13.20
2023-05-07T02:26:28.165Z,13.10
2023-05-07T02:29:16.728Z,13.10
2023-05-07T02:32:06.858Z,13.10
2023-05-07T02:34:55.466Z,13.00
2023-05-07T02:37:44.020Z,13.00
2023-05-07T02:40:34.728Z,13.10
2023-05-07T02:43:23.336Z,13.00
2023-05-07T02:46:12.306Z,13.00
2023-05-07T02:49:02.362Z,13.00
2023-05-07T02:51:51.008Z,13.00
2023-05-07T02:54:39.600Z,13.00
2023-05-07T02:57:28.163Z,13.00
2023-05-07T03:00:18.899Z,13.00
2023-05-07T03:03:07.582Z,13.00
2023-05-07T03:05:57.556Z,12.90
2023-05-07T03:08:46.212Z,12.90
2023-05-07T03:11:34.861Z,12.90
2023-05-07T03:14:23.447Z,12.90
2023-05-07T03:17:12.018Z,12.90
2023-05-07T03:20:00.727Z,12.90
2023-05-07T03:22:51.179Z,12.90
2023-05-07T03:25:39.738Z,12.90
2023-05-07T03:28:28.332Z,12.90
2023-05-07T03:31:16.963Z,12.90
2023-05-07T03:34:07.071Z,12.80
2023-05-07T03:36:55.670Z,12.90
2023-05-07T03:39:45.816Z,12.80
2023-05-07T03:42:34.448Z,12.80
2023-05-07T03:45:23.016Z,12.70
2023-05-07T03:48:11.587Z,12.70
2023-05-07T03:51:00.935Z,12.70
2023-05-07T03:53:49.511Z,12.70
2023-05-07T03:56:39.516Z,12.60
2023-05-07T03:59:28.090Z,12.60
2023-05-07T04:02:16.702Z,12.60
2023-05-07T04:05:05.654Z,12.60
2023-05-07T04:07:54.201Z,12.60
2023-05-07T04:10:42.769Z,12.60
2023-05-07T04:13:33.605Z,12.60
2023-05-07T04:16:22.218Z,12.70
2023-05-07T04:19:10.843Z,12.70
2023-05-07T04:21:59.368Z,12.70
2023-05-07T04:24:47.918Z,12.70
2023-05-07T04:27:36.619Z,12.70
2023-05-07T04:30:26.575Z,12.80
2023-05-07T04:33:17.887Z,12.70
2023-05-07T04:36:06.995Z,12.70
2023-05-07T04:38:55.627Z,12.80
2023-05-07T04:41:44.193Z,12.80
2023-05-07T04:44:33.213Z,12.80
2023-05-07T04:47:23.229Z,12.80
2023-05-07T04:50:13.148Z,12.80
2023-05-07T04:53:02.341Z,12.80
2023-05-07T04:55:50.944Z,12.90
2023-05-07T04:58:39.476Z,12.90
2023-05-07T05:01:28.084Z,13.00
2023-05-07T05:04:18.073Z,13.00
2023-05-07T05:07:07.015Z,13.10
2023-05-07T05:09:55.589Z,13.10
2023-05-07T05:12:44.152Z,13.20
2023-05-07T05:15:34.019Z,13.20
2023-05-07T05:18:22.730Z,13.20
2023-05-07T05:21:12.710Z,13.10
2023-05-07T05:24:01.285Z,13.10
2023-05-07T05:26:50.318Z,13.20
2023-05-07T05:29:38.906Z,13.30
2023-05-07T05:32:27.962Z,13.40
2023-05-07T05:35:16.678Z,13.50
2023-05-07T05:38:06.684Z,13.60
2023-05-07T05:40:56.625Z,13.60
2023-05-07T05:43:45.575Z,13.70
2023-05-07T05:46:36.457Z,13.80
2023-05-07T05:49:25.796Z,13.90
2023-05-07T05:52:15.097Z,14.10
2023-05-07T05:55:05.365Z,14.60
2023-05-07T05:57:53.971Z,15.20
2023-05-07T06:00:43.111Z,15.50
2023-05-07T06:03:31.713Z,15.70
2023-05-07T06:06:20.410Z,16.00
2023-05-07T06:09:08.941Z,16.20
2023-05-07T06:12:00.715Z,16.20
2023-05-07T06:14:49.676Z,16.40
2023-05-07T06:17:38.236Z,16.60
2023-05-07T06:20:26.953Z,16.70
2023-05-07T06:23:17.949Z,16.60
2023-05-07T06:26:06.782Z,16.50
2023-05-07T06:28:56.806Z,16.40
2023-05-07T06:31:45.543Z,16.30
2023-05-07T06:34:34.178Z,16.30
2023-05-07T06:37:22.715Z,16.20
2023-05-07T06:40:12.453Z,16.20
2023-05-07T06:43:01.348Z,16.20
2023-05-07T06:45:51.342Z,16.20
2023-05-07T06:48:40.028Z,16.40
2023-05-07T06:51:28.665Z,16.40
2023-05-07T06:54:17.252Z,16.40
2023-05-07T06:57:05.971Z,16.40
2023-05-07T06:59:54.564Z,16.40
2023-05-07T07:02:44.695Z,16.40
2023-05-07T07:05:33.312Z,16.20
2023-05-07T07:08:22.467Z,16.10
2023-05-07T07:11:12.371Z,16.00
2023-05-07T07:14:01.146Z,16.00
2023-05-07T07:16:49.729Z,16.00
2023-05-07T07:19:40.635Z,16.00
2023-05-07T07:22:29.215Z,16.10
2023-05-07T07:25:18.170Z,16.10
2023-05-07T07:28:07.309Z,16.10
2023-05-07T07:30:55.870Z,16.00
2023-05-07T07:33:44.445Z,16.20
2023-05-07T07:36:45.118Z,16.20
2023-05-07T07:39:34.810Z,16.30
2023-05-07T07:42:23.372Z,16.30
2023-05-07T07:45:13.051Z,16.40
2023-05-07T07:48:02.942Z,16.40
2023-05-07T07:50:52.394Z,16.50
2023-05-07T07:53:42.559Z,16.50
2023-05-07T07:56:31.181Z,16.50
2023-05-07T07:59:20.161Z,16.50
2023-05-07T08:02:08.854Z,16.50
2023-05-07T08:04:57.753Z,16.50
2023-05-07T08:07:47.417Z,16.70
2023-05-07T08:10:39.527Z,16.70
2023-05-07T08:13:28.455Z,17.00
2023-05-07T08:16:17.249Z,17.10
2023-05-07T08:19:06.057Z,17.20
2023-05-07T08:21:54.718Z,17.40
2023-05-07T08:24:43.373Z,17.60
2023-05-07T08:27:33.335Z,17.80
2023-05-07T08:30:22.185Z,18.00
2023-05-07T08:33:11.749Z,18.10
2023-05-07T08:36:00.527Z,18.00
2023-05-07T08:38:49.044Z,17.90
2023-05-07T08:41:38.591Z,17.90
2023-05-07T08:44:29.715Z,18.00
2023-05-07T08:47:22.040Z,18.30
2023-05-07T08:50:11.520Z,18.60
2023-05-07T08:53:01.135Z,18.70
2023-05-07T08:55:50.853Z,18.80
2023-05-07T08:58:39.650Z,19.00
2023-05-07T09:01:29.945Z,19.10
2023-05-07T09:04:18.691Z,19.30
2023-05-07T09:07:07.450Z,19.50
2023-05-07T09:09:58.092Z,19.80
2023-05-07T09:12:49.218Z,19.90
2023-05-07T09:15:37.843Z,19.90
2023-05-07T09:18:28.032Z,20.20
2023-05-07T09:21:18.504Z,20.20
2023-05-07T09:24:07.889Z,20.40
2023-05-07T09:26:57.362Z,20.40
2023-05-07T09:29:46.114Z,20.40
2023-05-07T09:32:37.886Z,20.70
2023-05-07T09:35:28.475Z,21.20
2023-05-07T09:38:20.345Z,21.10
2023-05-07T09:41:10.250Z,21.00
2023-05-07T09:44:01.420Z,20.70
2023-05-07T09:46:56.751Z,20.70
2023-05-07T09:49:50.005Z,20.60
2023-05-07T09:52:42.352Z,20.70
2023-05-07T09:55:31.877Z,20.80
2023-05-07T09:58:21.353Z,21.00
2023-05-07T10:01:10.673Z,21.20
2023-05-07T10:04:00.599Z,21.10
2023-05-07T10:06:49.837Z,21.30
2023-05-07T10:09:43.306Z,21.80
2023-05-07T10:12:38.726Z,22.40
2023-05-07T10:15:27.709Z,22.30
2023-05-07T10:18:20.805Z,22.30
2023-05-07T10:21:14.572Z,22.10
2023-05-07T10:24:17.992Z,21.70
2023-05-07T10:27:15.683Z,21.70
2023-05-07T10:30:15.949Z,21.80
2023-05-07T10:33:07.840Z,21.60
2023-05-07T10:36:01.746Z,21.80
2023-05-07T10:38:50.445Z,21.90
2023-05-07T10:41:39.209Z,21.80
2023-05-07T10:44:30.182Z,21.70
2023-05-07T10:47:20.001Z,21.80
2023-05-07T10:50:24.790Z,21.90
2023-05-07T10:53:31.456Z,22.00
2023-05-07T10:56:39.741Z,22.10
2023-05-07T10:59:45.108Z,21.60
2023-05-07T11:03:18.257Z,21.30
2023-05-07T11:06:17.080Z,21.30
2023-05-07T11:09:06.912Z,21.40
2023-05-07T11:11:56.952Z,21.60
2023-05-07T11:14:47.504Z,21.80
2023-05-07T11:17:37.617Z,22.10
2023-05-07T11:20:48.118Z,22.40
2023-05-07T11:24:09.945Z,22.50
2023-05-07T11:26:59.534Z,22.80
2023-05-07T11:29:50.808Z,23.20
2023-05-07T11:32:39.600Z,23.20
2023-05-07T11:35:28.633Z,23.10
2023-05-07T11:38:17.310Z,23.10
2023-05-07T11:41:06.487Z,23.10
2023-05-07T11:44:02.098Z,23.20
2023-05-07T11:46:52.112Z,23.00
2023-05-07T11:49:41.953Z,22.90
2023-05-07T11:52:30.616Z,23.00
2023-05-07T11:55:20.929Z,23.10
2023-05-07T11:58:10.823Z,23.30
2023-05-07T12:00:59.599Z,23.30
2023-05-07T12:03:49.590Z,23.10
2023-05-07T12:06:39.998Z,22.70
2023-05-07T12:09:28.613Z,22.20
2023-05-07T12:12:18.508Z,22.40
2023-05-07T12:15:08.113Z,23.20
2023-05-07T12:17:56.889Z,23.90
2023-05-07T12:20:47.273Z,23.90
2023-05-07T12:23:38.076Z,23.80
2023-05-07T12:26:26.893Z,23.90
2023-05-07T12:29:15.594Z,23.20
2023-05-07T12:32:06.551Z,22.80
2023-05-07T12:34:55.968Z,22.80
2023-05-07T12:37:46.270Z,23.10
2023-05-07T12:40:42.173Z,22.90
2023-05-07T12:43:31.561Z,23.00
2023-05-07T12:46:20.208Z,23.30
2023-05-07T12:49:08.881Z,23.40
2023-05-07T12:51:57.729Z,23.40
2023-05-07T12:54:47.778Z,23.20
2023-05-07T12:57:40.950Z,22.70
2023-05-07T13:00:36.805Z,22.40
2023-05-07T13:03:27.960Z,22.00
2023-05-07T13:06:16.718Z,21.30
2023-05-07T13:09:06.952Z,20.80
2023-05-07T13:11:57.015Z,20.50
2023-05-07T13:14:45.796Z,20.30
2023-05-07T13:17:34.530Z,20.30
2023-05-07T13:20:23.263Z,20.30
2023-05-07T13:23:11.870Z,20.30
2023-05-07T13:26:04.165Z,20.50
2023-05-07T13:28:56.557Z,20.70
2023-05-07T13:31:45.246Z,20.80
2023-05-07T13:34:34.058Z,21.10
2023-05-07T13:37:22.634Z,21.40
2023-05-07T13:40:12.413Z,21.70
2023-05-07T13:43:03.179Z,22.70
2023-05-07T13:45:53.282Z,23.30
2023-05-07T13:48:41.909Z,23.30
2023-05-07T13:51:30.481Z,22.70
2023-05-07T13:54:19.081Z,22.20
2023-05-07T13:57:07.672Z,22.10
2023-05-07T13:59:56.537Z,21.90
2023-05-07T14:02:46.566Z,22.00
2023-05-07T14:05:35.190Z,21.70
2023-05-07T14:08:24.079Z,21.30
2023-05-07T14:11:12.654Z,21.00
2023-05-07T14:14:01.221Z,21.00
2023-05-07T14:16:51.103Z,21.00
2023-05-07T14:19:41.463Z,21.70
2023-05-07T14:22:30.010Z,22.50
2023-05-07T14:25:19.058Z,22.70
2023-05-07T14:28:08.950Z,23.00
2023-05-07T14:30:57.783Z,23.50
2023-05-07T14:33:46.481Z,23.90
2023-05-07T14:36:36.492Z,24.10
2023-05-07T14:39:25.059Z,24.20
2023-05-07T14:42:13.690Z,24.10
2023-05-07T14:45:02.406Z,23.60
2023-05-07T14:47:51.087Z,23.60
2023-05-07T14:50:39.652Z,23.60
2023-05-07T14:53:29.639Z,23.20
2023-05-07T14:56:18.357Z,22.50
2023-05-07T14:59:07.250Z,22.30
2023-05-07T15:01:56.697Z,21.90
2023-05-07T15:04:47.718Z,21.50
2023-05-07T15:07:36.419Z,21.60
2023-05-07T15:10:26.505Z,21.40
2023-05-07T15:13:16.186Z,21.30
2023-05-07T15:16:05.158Z,21.40
2023-05-07T15:18:53.682Z,21.40
2023-05-07T15:21:42.246Z,21.50
2023-05-07T15:24:30.852Z,21.40
2023-05-07T15:27:21.651Z,21.20
2023-05-07T15:30:11.932Z,21.10
2023-05-07T15:33:00.739Z,20.90
2023-05-07T15:35:49.377Z,20.70
2023-05-07T15:38:37.969Z,20.80
2023-05-07T15:41:27.143Z,20.70
2023-05-07T15:44:17.182Z,20.70
2023-05-07T15:47:05.996Z,20.60
2023-05-07T15:49:54.560Z,20.40
2023-05-07T15:52:43.183Z,20.20
2023-05-07T15:55:32.233Z,20.10
2023-05-07T15:58:21.314Z,20.00
2023-05-07T16:01:11.457Z,19.90
2023-05-07T16:04:00.352Z,20.00
2023-05-07T16:06:48.981Z,20.00
2023-05-07T16:09:37.674Z,19.90
2023-05-07T16:12:26.360Z,19.80
2023-05-07T16:15:15.111Z,19.80
2023-05-07T16:18:05.525Z,19.80
2023-05-07T16:20:54.543Z,19.70
2023-05-07T16:23:43.269Z,19.60
2023-05-07T16:26:32.095Z,19.60
2023-05-07T16:29:21.035Z,19.50
2023-05-07T16:32:09.790Z,19.50
2023-05-07T16:34:59.817Z,19.40
2023-05-07T16:37:48.420Z,19.30
2023-05-07T16:40:39.561Z,19.10
2023-05-07T16:43:28.375Z,18.70
2023-05-07T16:46:17.144Z,18.20
2023-05-07T16:49:05.769Z,17.60
2023-05-07T16:51:56.077Z,16.90
2023-05-07T16:54:44.668Z,16.50
2023-05-07T16:57:33.212Z,16.30
2023-05-07T17:00:21.866Z,15.70
2023-05-07T17:03:10.621Z,15.30
2023-05-07T17:05:59.643Z,15.20
2023-05-07T17:08:51.619Z,15.10
2023-05-07T17:11:40.193Z,15.00
2023-05-07T17:14:28.943Z,14.70
2023-05-07T17:17:17.582Z,14.20
2023-05-07T17:20:07.131Z,13.80
2023-05-07T17:22:55.812Z,13.80
2023-05-07T17:25:46.076Z,13.70
2023-05-07T17:28:35.267Z,13.60
2023-05-07T17:31:23.959Z,13.60
2023-05-07T17:34:12.815Z,13.60
2023-05-07T17:37:01.669Z,13.60
2023-05-07T17:39:50.335Z,13.70
2023-05-07T17:42:40.330Z,13.80
2023-05-07T17:45:29.101Z,13.90
2023-05-07T17:48:18.605Z,14.00
2023-05-07T17:51:07.213Z,14.10
2023-05-07T17:53:55.867Z,14.10
2023-05-07T17:56:44.966Z,14.10
2023-05-07T17:59:35.657Z,14.20
2023-05-07T18:46:56.788Z,13.90
2023-05-07T19:43:46.303Z,13.70
2023-05-07T19:47:06.038Z,13.80
2023-05-07T19:49:58.918Z,13.70
2023-05-07T19:52:47.491Z,13.60
2023-05-07T19:55:42.876Z,13.60
2023-05-07T19:59:10.508Z,13.60
2023-05-07T20:02:16.810Z,13.60
2023-05-07T20:05:14.559Z,13.50
2023-05-07T20:16:35.915Z,13.60
2023-05-07T20:28:27.016Z,13.50
2023-05-07T20:31:16.448Z,13.50
2023-05-07T20:34:20.739Z,13.50
2023-05-07T21:00:53.420Z,13.40
2023-05-07T21:03:42.816Z,13.40
2023-05-07T21:06:44.806Z,13.30
2023-05-07T21:12:15.491Z,13.30
2023-05-07T21:33:42.892Z,13.20
2023-05-07T21:37:15.188Z,13.20
2023-05-07T21:40:07.538Z,13.30
2023-05-07T21:43:26.076Z,13.30
2023-05-07T21:49:50.585Z,13.20
2023-05-07T21:52:44.450Z,13.20
2023-05-07T21:55:37.477Z,13.30
2023-05-07T21:59:23.668Z,13.20
2023-05-07T22:02:41.335Z,13.30
2023-05-07T22:17:48.028Z,13.20
2023-05-07T22:20:51.829Z,13.10
